createdAt,value
2017-12-15T00:00:05.296Z,4.08
2017-12-15T00:01:06.717Z,3.94
2017-12-15T00:02:08.119Z,4.16
2017-12-15T00:03:09.608Z,4.07
2017-12-15T00:04:11.022Z,4.26
2017-12-15T00:05:12.434Z,4.32
2017-12-15T00:06:13.842Z,4.39
2017-12-15T00:07:15.262Z,4.15
2017-12-15T00:08:16.672Z,4.12
2017-12-15T00:09:18.082Z,4.04
2017-12-15T00:10:19.493Z,4.15
2017-12-15T00:11:20.910Z,3.98
2017-12-15T00:12:22.308Z,4.14
2017-12-15T00:13:23.722Z,4.18
2017-12-15T00:14:25.138Z,4.19
2017-12-15T00:15:26.548Z,4.18
2017-12-15T00:16:27.959Z,4.08
2017-12-15T00:17:29.371Z,4.34
2017-12-15T00:18:30.778Z,4.36
2017-12-15T00:19:32.181Z,4.32
2017-12-15T00:20:33.593Z,4.29
2017-12-15T00:21:35.018Z,4.52
2017-12-15T00:22:36.423Z,4.62
2017-12-15T00:23:37.823Z,4.69
2017-12-15T00:24:39.234Z,4.62
2017-12-15T00:25:40.643Z,4.58
2017-12-15T00:26:42.057Z,4.64
2017-12-15T00:27:43.470Z,4.58
2017-12-15T00:28:44.884Z,4.62
2017-12-15T00:29:46.299Z,4.76
2017-12-15T00:30:47.712Z,4.92
2017-12-15T00:31:49.113Z,4.99
2017-12-15T00:32:50.605Z,4.99
2017-12-15T00:33:52.057Z,4.89
2017-12-15T00:34:53.437Z,4.77
2017-12-15T00:35:54.846Z,4.84
2017-12-15T00:36:56.258Z,4.80
2017-12-15T00:37:57.671Z,4.58
2017-12-15T00:38:59.074Z,4.67
2017-12-15T00:40:00.483Z,4.76
2017-12-15T00:41:01.914Z,4.83
2017-12-15T00:42:03.337Z,4.89
2017-12-15T00:43:04.743Z,4.99
2017-12-15T00:44:06.150Z,5.07
2017-12-15T00:45:07.555Z,5.16
2017-12-15T00:46:08.971Z,5.10
2017-12-15T00:47:10.390Z,5.07
2017-12-15T00:48:11.795Z,4.96
2017-12-15T00:49:13.200Z,4.98
2017-12-15T00:50:14.603Z,5.04
2017-12-15T00:51:16.018Z,4.84
2017-12-15T00:52:17.425Z,4.84
2017-12-15T00:53:18.844Z,4.75
2017-12-15T00:54:20.249Z,4.92
2017-12-15T00:55:21.667Z,4.99
2017-12-15T00:56:23.074Z,4.96
2017-12-15T00:57:24.481Z,4.72
2017-12-15T00:58:25.883Z,4.86
2017-12-15T00:59:27.386Z,4.89
2017-12-15T01:00:28.795Z,4.95
2017-12-15T01:01:30.208Z,4.77
2017-12-15T01:02:31.611Z,4.96
2017-12-15T01:03:33.018Z,4.92
2017-12-15T01:04:34.438Z,4.98
2017-12-15T01:05:35.849Z,4.80
2017-12-15T01:06:37.265Z,4.99
2017-12-15T01:07:38.670Z,4.94
2017-12-15T01:08:40.078Z,5.02
2017-12-15T01:09:41.494Z,4.95
2017-12-15T01:10:42.903Z,4.80
2017-12-15T01:11:44.306Z,4.91
2017-12-15T01:12:45.732Z,4.79
2017-12-15T01:13:47.133Z,4.80
2017-12-15T01:14:48.547Z,4.88
2017-12-15T01:15:49.957Z,5.02
2017-12-15T01:16:51.364Z,5.04
2017-12-15T01:17:52.782Z,4.98
2017-12-15T01:18:54.177Z,4.91
2017-12-15T01:19:55.582Z,4.91
2017-12-15T01:20:56.989Z,4.95
2017-12-15T01:21:58.388Z,5.12
2017-12-15T01:22:59.803Z,5.20
2017-12-15T01:24:01.219Z,5.05
2017-12-15T01:25:02.619Z,5.04
2017-12-15T01:26:04.029Z,4.98
2017-12-15T01:27:05.453Z,4.89
2017-12-15T01:28:06.864Z,4.76
2017-12-15T01:29:08.269Z,4.67
2017-12-15T01:30:09.734Z,4.70
2017-12-15T01:31:12.558Z,4.77
2017-12-15T01:32:13.992Z,4.89
2017-12-15T01:33:15.459Z,4.94
2017-12-15T01:34:16.883Z,4.86
2017-12-15T01:35:18.283Z,4.89
2017-12-15T01:36:19.691Z,4.95
2017-12-15T01:37:21.101Z,4.88
2017-12-15T01:38:22.512Z,4.80
2017-12-15T01:39:23.923Z,4.75
2017-12-15T01:40:25.351Z,4.92
2017-12-15T01:41:26.759Z,4.76
2017-12-15T01:42:28.168Z,4.73
2017-12-15T01:43:29.577Z,4.86
2017-12-15T01:44:30.994Z,4.77
2017-12-15T01:45:32.412Z,5.02
2017-12-15T01:46:33.831Z,4.95
2017-12-15T01:47:35.242Z,5.13
2017-12-15T01:48:36.654Z,4.86
2017-12-15T01:49:38.074Z,4.98
2017-12-15T01:50:39.484Z,4.94
2017-12-15T01:51:40.897Z,4.84
2017-12-15T01:52:42.324Z,4.84
2017-12-15T01:53:43.690Z,4.92
2017-12-15T01:54:45.100Z,5.04
2017-12-15T01:55:46.512Z,4.98
2017-12-15T01:56:47.911Z,4.76
2017-12-15T01:57:49.322Z,4.98
2017-12-15T01:58:50.733Z,4.70
2017-12-15T01:59:52.141Z,4.80
2017-12-15T02:00:53.553Z,4.99
2017-12-15T02:01:56.312Z,4.99
2017-12-15T02:02:57.725Z,5.14
2017-12-15T02:03:59.136Z,5.19
2017-12-15T02:05:00.546Z,5.07
2017-12-15T02:06:01.960Z,5.01
2017-12-15T02:07:03.359Z,4.75
2017-12-15T02:08:04.774Z,4.64
2017-12-15T02:09:06.188Z,4.61
2017-12-15T02:10:07.592Z,4.79
2017-12-15T02:11:09.002Z,4.84
2017-12-15T02:12:10.411Z,4.95
2017-12-15T02:13:11.821Z,4.86
2017-12-15T02:14:13.227Z,4.86
2017-12-15T02:15:14.638Z,4.83
2017-12-15T02:16:16.051Z,5.02
2017-12-15T02:17:17.464Z,5.17
2017-12-15T02:18:18.866Z,5.05
2017-12-15T02:19:20.443Z,4.73
2017-12-15T02:20:21.845Z,4.75
2017-12-15T02:21:23.249Z,4.89
2017-12-15T02:22:24.659Z,4.80
2017-12-15T02:23:26.081Z,4.91
2017-12-15T02:24:27.487Z,5.10
2017-12-15T02:25:28.903Z,5.05
2017-12-15T02:26:30.302Z,5.07
2017-12-15T02:27:31.712Z,4.70
2017-12-15T02:28:33.131Z,4.64
2017-12-15T02:29:34.543Z,4.83
2017-12-15T02:30:35.940Z,4.73
2017-12-15T02:31:37.422Z,4.61
2017-12-15T02:32:38.832Z,4.89
2017-12-15T02:33:40.239Z,4.72
2017-12-15T02:34:41.651Z,4.61
2017-12-15T02:35:43.060Z,4.76
2017-12-15T02:36:44.471Z,4.69
2017-12-15T02:37:45.893Z,4.58
2017-12-15T02:38:47.300Z,4.58
2017-12-15T02:39:48.712Z,4.44
2017-12-15T02:40:50.124Z,4.69
2017-12-15T02:41:51.541Z,4.95
2017-12-15T02:42:52.956Z,4.80
2017-12-15T02:43:54.364Z,4.59
2017-12-15T02:44:55.774Z,4.55
2017-12-15T02:45:57.238Z,4.57
2017-12-15T02:46:58.642Z,4.65
2017-12-15T02:48:00.041Z,4.62
2017-12-15T02:49:01.457Z,4.52
2017-12-15T02:50:02.882Z,4.47
2017-12-15T02:51:04.280Z,4.57
2017-12-15T02:52:05.703Z,4.46
2017-12-15T02:53:07.097Z,4.42
2017-12-15T02:54:08.505Z,4.47
2017-12-15T02:55:09.911Z,4.42
2017-12-15T02:56:11.324Z,4.61
2017-12-15T02:57:12.852Z,4.51
2017-12-15T02:58:14.272Z,4.47
2017-12-15T02:59:15.673Z,4.77
2017-12-15T03:00:17.087Z,4.62
2017-12-15T03:01:18.496Z,4.61
2017-12-15T03:02:19.921Z,4.76
2017-12-15T03:03:21.331Z,4.75
2017-12-15T03:04:22.743Z,4.65
2017-12-15T03:05:24.157Z,4.75
2017-12-15T03:06:25.571Z,4.72
2017-12-15T03:07:26.975Z,4.91
2017-12-15T03:08:28.389Z,4.89
2017-12-15T03:09:29.818Z,5.02
2017-12-15T03:10:31.233Z,4.86
2017-12-15T03:11:32.636Z,4.94
2017-12-15T03:12:34.052Z,4.76
2017-12-15T03:13:35.455Z,4.89
2017-12-15T03:14:36.875Z,4.62
2017-12-15T03:15:38.379Z,4.64
2017-12-15T03:16:39.781Z,4.46
2017-12-15T03:17:41.193Z,4.61
2017-12-15T03:18:42.611Z,4.73
2017-12-15T03:19:44.027Z,4.73
2017-12-15T03:20:45.445Z,4.67
2017-12-15T03:21:46.851Z,4.80
2017-12-15T03:22:48.321Z,4.59
2017-12-15T03:23:49.735Z,4.61
2017-12-15T03:24:51.138Z,4.73
2017-12-15T03:25:52.550Z,4.83
2017-12-15T03:26:53.951Z,4.75
2017-12-15T03:27:55.359Z,4.86
2017-12-15T03:28:56.785Z,4.77
2017-12-15T03:29:58.192Z,4.73
2017-12-15T03:30:59.598Z,4.84
2017-12-15T03:32:01.012Z,4.72
2017-12-15T03:33:02.428Z,4.89
2017-12-15T03:34:03.829Z,4.94
2017-12-15T03:35:05.247Z,4.95
2017-12-15T03:36:06.653Z,4.88
2017-12-15T03:37:08.063Z,4.89
2017-12-15T03:38:09.469Z,4.80
2017-12-15T03:39:10.882Z,4.69
2017-12-15T03:40:12.287Z,4.67
2017-12-15T03:41:13.692Z,4.80
2017-12-15T03:42:15.101Z,4.79
2017-12-15T03:43:16.515Z,4.80
2017-12-15T03:44:17.920Z,4.83
2017-12-15T03:45:19.325Z,5.01
2017-12-15T03:46:20.741Z,4.88
2017-12-15T03:47:22.146Z,4.89
2017-12-15T03:48:23.560Z,4.67
2017-12-15T03:49:24.972Z,4.95
2017-12-15T03:50:26.380Z,5.02
2017-12-15T03:51:27.790Z,4.91
2017-12-15T03:52:29.201Z,4.89
2017-12-15T03:53:30.756Z,4.89
2017-12-15T03:54:32.158Z,4.92
2017-12-15T03:55:33.569Z,5.04
2017-12-15T03:56:34.967Z,4.83
2017-12-15T03:57:36.379Z,4.83
2017-12-15T03:58:37.800Z,4.94
2017-12-15T03:59:39.208Z,4.94
2017-12-15T04:00:40.722Z,4.95
2017-12-15T04:01:42.130Z,5.05
2017-12-15T04:02:43.543Z,4.83
2017-12-15T04:03:44.947Z,4.86
2017-12-15T04:04:46.361Z,5.04
2017-12-15T04:05:47.779Z,4.96
2017-12-15T04:06:49.187Z,5.02
2017-12-15T04:07:50.594Z,4.88
2017-12-15T04:08:52.010Z,4.86
2017-12-15T04:09:53.413Z,4.89
2017-12-15T04:10:54.824Z,4.95
2017-12-15T04:11:56.231Z,4.86
2017-12-15T04:12:57.646Z,4.92
2017-12-15T04:13:59.062Z,4.72
2017-12-15T04:15:00.470Z,4.72
2017-12-15T04:16:01.876Z,4.57
2017-12-15T04:17:03.294Z,4.62
2017-12-15T04:18:04.693Z,4.44
2017-12-15T04:19:06.103Z,4.65
2017-12-15T04:20:07.512Z,4.62
2017-12-15T04:21:08.914Z,4.70
2017-12-15T04:22:10.326Z,4.58
2017-12-15T04:23:11.725Z,4.52
2017-12-15T04:24:13.139Z,4.46
2017-12-15T04:25:14.557Z,4.58
2017-12-15T04:26:15.969Z,4.70
2017-12-15T04:27:17.375Z,4.80
2017-12-15T04:28:18.787Z,4.75
2017-12-15T04:29:20.204Z,4.57
2017-12-15T04:30:21.616Z,4.69
2017-12-15T04:31:23.021Z,4.47
2017-12-15T04:32:24.424Z,4.50
2017-12-15T04:33:25.850Z,4.44
2017-12-15T04:34:27.733Z,4.43
2017-12-15T04:35:29.126Z,4.55
2017-12-15T04:36:30.531Z,4.86
2017-12-15T04:37:31.951Z,4.89
2017-12-15T04:38:33.364Z,4.73
2017-12-15T04:39:34.785Z,4.80
2017-12-15T04:40:36.198Z,4.88
2017-12-15T04:41:37.614Z,4.94
2017-12-15T04:42:39.017Z,4.86
2017-12-15T04:43:40.417Z,4.77
2017-12-15T04:44:41.834Z,4.59
2017-12-15T04:45:43.243Z,4.64
2017-12-15T04:46:44.639Z,4.65
2017-12-15T04:47:46.043Z,4.89
2017-12-15T04:48:47.457Z,4.64
2017-12-15T04:49:48.879Z,4.43
2017-12-15T04:50:50.290Z,4.44
2017-12-15T04:51:51.705Z,4.46
2017-12-15T04:52:53.120Z,4.54
2017-12-15T04:53:54.520Z,4.47
2017-12-15T04:54:55.943Z,4.44
2017-12-15T04:55:57.356Z,4.37
2017-12-15T04:56:58.767Z,4.37
2017-12-15T04:58:00.176Z,4.46
2017-12-15T04:59:01.593Z,4.44
2017-12-15T05:00:03.004Z,4.67
2017-12-15T05:01:04.410Z,4.50
2017-12-15T05:02:05.825Z,4.42
2017-12-15T05:03:07.230Z,4.51
2017-12-15T05:04:08.642Z,4.39
2017-12-15T05:05:10.049Z,4.47
2017-12-15T05:06:11.457Z,4.42
2017-12-15T05:07:13.485Z,4.29
2017-12-15T05:08:14.891Z,4.39
2017-12-15T05:09:16.321Z,4.44
2017-12-15T05:10:17.735Z,4.47
2017-12-15T05:11:19.146Z,4.46
2017-12-15T05:12:20.638Z,4.55
2017-12-15T05:13:22.201Z,4.43
2017-12-15T05:14:23.615Z,4.32
2017-12-15T05:15:25.040Z,4.42
2017-12-15T05:16:26.448Z,4.42
2017-12-15T05:17:27.859Z,4.44
2017-12-15T05:18:29.273Z,4.36
2017-12-15T05:19:30.689Z,4.34
2017-12-15T05:20:32.098Z,4.55
2017-12-15T05:21:33.506Z,4.57
2017-12-15T05:22:34.922Z,4.67
2017-12-15T05:23:36.328Z,4.50
2017-12-15T05:24:37.731Z,4.51
2017-12-15T05:25:39.149Z,4.32
2017-12-15T05:26:40.557Z,4.47
2017-12-15T05:27:41.962Z,4.51
2017-12-15T05:28:43.376Z,4.44
2017-12-15T05:29:44.781Z,4.42
2017-12-15T05:30:46.185Z,4.40
2017-12-15T05:31:47.599Z,4.39
2017-12-15T05:32:49.007Z,4.40
2017-12-15T05:33:50.423Z,4.40
2017-12-15T05:34:51.837Z,4.47
2017-12-15T05:35:53.252Z,4.40
2017-12-15T05:36:54.649Z,4.44
2017-12-15T05:37:56.065Z,4.44
2017-12-15T05:38:57.471Z,4.61
2017-12-15T05:39:58.887Z,4.50
2017-12-15T05:41:00.304Z,4.43
2017-12-15T05:42:01.708Z,4.46
2017-12-15T05:43:03.119Z,4.50
2017-12-15T05:44:04.522Z,4.43
2017-12-15T05:45:05.942Z,4.42
2017-12-15T05:46:07.420Z,4.28
2017-12-15T05:47:08.845Z,4.34
2017-12-15T05:48:10.251Z,4.32
2017-12-15T05:49:11.660Z,4.39
2017-12-15T05:50:13.077Z,4.43
2017-12-15T05:51:14.492Z,4.47
2017-12-15T05:52:15.899Z,4.65
2017-12-15T05:53:17.310Z,4.62
2017-12-15T05:54:18.722Z,4.61
2017-12-15T05:55:20.137Z,4.57
2017-12-15T05:56:21.542Z,4.69
2017-12-15T05:57:22.950Z,5.01
2017-12-15T05:58:24.364Z,4.84
2017-12-15T05:59:25.770Z,4.95
2017-12-15T06:00:27.188Z,4.72
2017-12-15T06:01:28.601Z,4.88
2017-12-15T06:02:30.009Z,4.84
2017-12-15T06:03:31.415Z,4.73
2017-12-15T06:04:32.838Z,4.69
2017-12-15T06:05:34.265Z,4.72
2017-12-15T06:06:35.670Z,4.92
2017-12-15T06:07:37.084Z,4.84
2017-12-15T06:08:38.493Z,4.69
2017-12-15T06:09:39.892Z,4.83
2017-12-15T06:10:41.306Z,4.65
2017-12-15T06:11:42.721Z,4.58
2017-12-15T06:12:44.133Z,4.46
2017-12-15T06:13:45.539Z,4.57
2017-12-15T06:14:46.961Z,4.47
2017-12-15T06:15:48.382Z,4.51
2017-12-15T06:16:49.851Z,4.52
2017-12-15T06:17:51.256Z,4.51
2017-12-15T06:18:52.673Z,4.50
2017-12-15T06:19:54.075Z,4.46
2017-12-15T06:20:55.484Z,4.51
2017-12-15T06:21:56.910Z,4.43
2017-12-15T06:22:58.315Z,4.65
2017-12-15T06:23:59.809Z,4.76
2017-12-15T06:25:01.215Z,4.65
2017-12-15T06:26:02.635Z,4.76
2017-12-15T06:27:04.035Z,4.70
2017-12-15T06:28:05.450Z,4.69
2017-12-15T06:29:06.870Z,4.76
2017-12-15T06:30:08.281Z,4.77
2017-12-15T06:31:09.700Z,4.72
2017-12-15T06:32:11.111Z,4.76
2017-12-15T06:33:12.523Z,4.70
2017-12-15T06:34:13.927Z,4.70
2017-12-15T06:35:15.341Z,4.72
2017-12-15T06:36:16.764Z,4.88
2017-12-15T06:37:18.180Z,4.94
2017-12-15T06:38:19.587Z,4.80
2017-12-15T06:39:21.010Z,4.65
2017-12-15T06:40:22.423Z,4.86
2017-12-15T06:41:23.837Z,4.73
2017-12-15T06:42:25.247Z,4.70
2017-12-15T06:43:26.649Z,4.69
2017-12-15T06:44:28.063Z,4.86
2017-12-15T06:45:29.487Z,4.91
2017-12-15T06:46:30.893Z,4.84
2017-12-15T06:47:32.308Z,4.88
2017-12-15T06:48:33.711Z,4.76
2017-12-15T06:49:35.141Z,4.65
2017-12-15T06:50:36.554Z,4.86
2017-12-15T06:51:37.971Z,4.72
2017-12-15T06:52:39.383Z,4.89
2017-12-15T06:53:40.794Z,4.79
2017-12-15T06:54:42.201Z,4.98
2017-12-15T06:55:43.612Z,5.01
2017-12-15T06:56:45.019Z,5.02
2017-12-15T06:57:46.437Z,5.02
2017-12-15T06:58:47.843Z,4.94
2017-12-15T06:59:49.823Z,5.02
2017-12-15T07:00:51.234Z,4.96
2017-12-15T07:01:52.661Z,4.92
2017-12-15T07:02:54.071Z,4.95
2017-12-15T07:03:55.471Z,5.09
2017-12-15T07:04:56.881Z,5.17
2017-12-15T07:05:58.302Z,5.07
2017-12-15T07:06:59.713Z,4.98
2017-12-15T07:08:01.127Z,4.98
2017-12-15T07:09:02.535Z,4.98
2017-12-15T07:10:03.999Z,5.01
2017-12-15T07:11:05.363Z,4.77
2017-12-15T07:12:06.780Z,4.92
2017-12-15T07:13:08.192Z,4.86
2017-12-15T07:14:09.605Z,4.76
2017-12-15T07:15:11.013Z,4.89
2017-12-15T07:16:12.418Z,4.79
2017-12-15T07:17:13.883Z,4.76
2017-12-15T07:18:15.290Z,4.70
2017-12-15T07:19:16.702Z,4.73
2017-12-15T07:20:18.132Z,4.69
2017-12-15T07:21:19.541Z,4.76
2017-12-15T07:22:20.960Z,4.70
2017-12-15T07:23:22.372Z,4.73
2017-12-15T07:24:23.805Z,4.73
2017-12-15T07:25:25.190Z,4.76
2017-12-15T07:26:26.592Z,4.77
2017-12-15T07:27:28.001Z,4.65
2017-12-15T07:28:29.411Z,4.73
2017-12-15T07:29:30.823Z,5.04
2017-12-15T07:30:32.239Z,5.09
2017-12-15T07:31:33.641Z,5.02
2017-12-15T07:32:35.047Z,5.01
2017-12-15T07:33:36.463Z,4.86
2017-12-15T07:34:37.856Z,4.79
2017-12-15T07:35:39.280Z,4.76
2017-12-15T07:36:40.700Z,4.92
2017-12-15T07:37:42.105Z,5.04
2017-12-15T07:38:43.512Z,4.98
2017-12-15T07:39:44.919Z,4.83
2017-12-15T07:40:46.335Z,4.95
2017-12-15T07:41:47.745Z,4.79
2017-12-15T07:42:49.153Z,4.92
2017-12-15T07:43:50.560Z,4.80
2017-12-15T07:44:51.982Z,4.77
2017-12-15T07:45:53.389Z,4.92
2017-12-15T07:46:54.817Z,4.75
2017-12-15T07:47:56.226Z,4.92
2017-12-15T07:48:57.625Z,4.86
2017-12-15T07:49:59.042Z,4.99
2017-12-15T07:51:00.449Z,5.23
2017-12-15T07:52:01.912Z,5.22
2017-12-15T07:53:03.263Z,5.34
2017-12-15T07:54:04.672Z,5.30
2017-12-15T07:55:06.099Z,5.32
2017-12-15T07:56:07.515Z,5.37
2017-12-15T07:57:08.920Z,5.30
2017-12-15T07:58:10.338Z,5.17
2017-12-15T07:59:11.784Z,5.07
2017-12-15T08:00:13.159Z,5.10
2017-12-15T08:01:14.588Z,5.17
2017-12-15T08:02:16.060Z,5.05
2017-12-15T08:03:17.476Z,5.04
2017-12-15T08:04:18.894Z,5.10
2017-12-15T08:05:20.344Z,4.99
2017-12-15T08:06:21.750Z,5.09
2017-12-15T08:07:23.158Z,5.05
2017-12-15T08:08:24.570Z,5.22
2017-12-15T08:09:25.985Z,5.12
2017-12-15T08:10:27.421Z,5.20
2017-12-15T08:11:28.829Z,5.20
2017-12-15T08:12:30.242Z,5.25
2017-12-15T08:13:31.647Z,5.25
2017-12-15T08:14:33.057Z,5.48
2017-12-15T08:15:34.476Z,5.46
2017-12-15T08:16:35.882Z,5.40
2017-12-15T08:17:37.294Z,5.49
2017-12-15T08:18:38.704Z,5.28
2017-12-15T08:19:40.120Z,5.20
2017-12-15T08:20:41.534Z,5.20
2017-12-15T08:21:42.955Z,5.25
2017-12-15T08:22:44.360Z,5.34
2017-12-15T08:23:45.780Z,5.41
2017-12-15T08:24:47.189Z,5.16
2017-12-15T08:25:48.607Z,5.32
2017-12-15T08:26:50.012Z,5.63
2017-12-15T08:27:51.427Z,6.03
2017-12-15T08:28:52.841Z,6.32
2017-12-15T08:29:54.258Z,6.04
2017-12-15T08:30:55.662Z,5.88
2017-12-15T08:31:57.071Z,5.68
2017-12-15T08:32:58.489Z,5.53
2017-12-15T08:33:59.906Z,5.56
2017-12-15T08:35:01.320Z,5.43
2017-12-15T08:36:02.732Z,5.50
2017-12-15T08:37:04.139Z,5.37
2017-12-15T08:38:05.544Z,5.38
2017-12-15T08:39:06.959Z,5.35
2017-12-15T08:40:08.364Z,5.41
2017-12-15T08:41:09.777Z,5.43
2017-12-15T08:42:11.177Z,5.19
2017-12-15T08:43:12.596Z,5.40
2017-12-15T08:44:14.001Z,5.52
2017-12-15T08:45:15.427Z,5.50
2017-12-15T08:46:16.842Z,5.38
2017-12-15T08:47:18.253Z,5.45
2017-12-15T08:48:19.665Z,5.40
2017-12-15T08:49:21.068Z,5.46
2017-12-15T08:50:22.479Z,5.38
2017-12-15T08:51:23.894Z,5.48
2017-12-15T08:52:25.298Z,5.41
2017-12-15T08:53:26.714Z,5.35
2017-12-15T08:54:28.124Z,5.20
2017-12-15T08:55:29.541Z,5.41
2017-12-15T08:56:30.967Z,5.38
2017-12-15T08:57:32.380Z,5.35
2017-12-15T08:58:33.795Z,5.49
2017-12-15T08:59:35.208Z,5.46
2017-12-15T09:00:36.630Z,5.31
2017-12-15T09:01:38.043Z,5.43
2017-12-15T09:02:39.449Z,5.41
2017-12-15T09:03:40.868Z,5.35
2017-12-15T09:04:42.282Z,5.48
2017-12-15T09:05:43.693Z,5.50
2017-12-15T09:06:45.110Z,5.45
2017-12-15T09:07:46.520Z,5.55
2017-12-15T09:08:47.941Z,5.56
2017-12-15T09:09:49.349Z,5.46
2017-12-15T09:10:50.811Z,5.56
2017-12-15T09:11:52.222Z,5.60
2017-12-15T09:12:53.644Z,5.66
2017-12-15T09:13:55.055Z,5.56
2017-12-15T09:14:56.493Z,5.53
2017-12-15T09:15:57.883Z,5.71
2017-12-15T09:16:59.300Z,5.78
2017-12-15T09:18:00.839Z,5.68
2017-12-15T09:19:02.264Z,5.67
2017-12-15T09:20:03.677Z,5.59
2017-12-15T09:21:05.093Z,5.56
2017-12-15T09:22:06.501Z,5.59
2017-12-15T09:23:07.922Z,5.64
2017-12-15T09:24:09.364Z,5.71
2017-12-15T09:25:10.790Z,5.74
2017-12-15T09:26:12.215Z,5.64
2017-12-15T09:27:13.622Z,5.68
2017-12-15T09:28:15.038Z,5.70
2017-12-15T09:29:16.454Z,5.92
2017-12-15T09:30:17.875Z,5.88
2017-12-15T09:31:19.296Z,5.85
2017-12-15T09:32:20.716Z,5.88
2017-12-15T09:33:22.136Z,5.88
2017-12-15T09:34:23.552Z,5.96
2017-12-15T09:35:24.974Z,5.98
2017-12-15T09:36:26.447Z,5.96
2017-12-15T09:37:27.807Z,6.10
2017-12-15T09:38:29.233Z,6.03
2017-12-15T09:39:30.655Z,6.06
2017-12-15T09:40:32.067Z,5.96
2017-12-15T09:41:33.520Z,6.01
2017-12-15T09:42:34.946Z,5.88
2017-12-15T09:43:36.363Z,5.98
2017-12-15T09:44:37.790Z,6.00
2017-12-15T09:45:39.209Z,6.03
2017-12-15T09:46:40.626Z,6.00
2017-12-15T09:47:42.029Z,6.04
2017-12-15T09:48:43.442Z,6.01
2017-12-15T09:49:44.853Z,6.03
2017-12-15T09:50:46.263Z,5.95
2017-12-15T09:51:47.676Z,6.04
2017-12-15T09:52:49.091Z,6.04
2017-12-15T09:53:50.506Z,5.98
2017-12-15T09:54:53.708Z,6.00
2017-12-15T09:55:55.118Z,6.03
2017-12-15T09:56:56.544Z,6.01
2017-12-15T09:57:57.956Z,6.22
2017-12-15T09:58:59.377Z,6.30
2017-12-15T10:00:00.784Z,6.26
2017-12-15T10:01:02.202Z,6.18
2017-12-15T10:02:03.613Z,6.07
2017-12-15T10:03:05.024Z,6.21
2017-12-15T10:04:06.434Z,6.11
2017-12-15T10:05:07.845Z,6.29
2017-12-15T10:06:09.257Z,6.19
2017-12-15T10:07:10.676Z,6.04
2017-12-15T10:08:12.081Z,6.06
2017-12-15T10:09:13.495Z,6.10
2017-12-15T10:10:14.903Z,6.30
2017-12-15T10:11:16.315Z,6.35
2017-12-15T10:12:17.727Z,6.32
2017-12-15T10:13:19.145Z,6.33
2017-12-15T10:14:20.569Z,6.46
2017-12-15T10:15:21.978Z,6.44
2017-12-15T10:16:23.411Z,6.50
2017-12-15T10:17:24.815Z,6.46
2017-12-15T10:18:26.225Z,6.47
2017-12-15T10:19:27.639Z,6.51
2017-12-15T10:20:29.055Z,6.72
2017-12-15T10:21:30.474Z,6.66
2017-12-15T10:22:31.883Z,6.66
2017-12-15T10:23:33.300Z,6.63
2017-12-15T10:24:34.721Z,6.65
2017-12-15T10:25:36.138Z,6.73
2017-12-15T10:26:37.553Z,6.72
2017-12-15T10:27:39.005Z,6.61
2017-12-15T10:28:40.418Z,6.63
2017-12-15T10:29:41.831Z,6.83
2017-12-15T10:30:43.279Z,6.68
2017-12-15T10:31:44.704Z,6.73
2017-12-15T10:32:46.121Z,6.65
2017-12-15T10:33:47.535Z,6.59
2017-12-15T10:34:48.954Z,6.53
2017-12-15T10:35:50.355Z,6.58
2017-12-15T10:36:51.771Z,6.65
2017-12-15T10:37:53.182Z,6.68
2017-12-15T10:38:54.593Z,6.63
2017-12-15T10:39:56.003Z,6.53
2017-12-15T10:40:57.423Z,6.50
2017-12-15T10:41:58.825Z,6.62
2017-12-15T10:43:00.244Z,6.72
2017-12-15T10:44:01.666Z,6.66
2017-12-15T10:45:03.062Z,6.76
2017-12-15T10:46:04.471Z,6.87
2017-12-15T10:47:05.895Z,6.95
2017-12-15T10:48:07.312Z,6.89
2017-12-15T10:49:08.725Z,6.89
2017-12-15T10:50:10.143Z,6.94
2017-12-15T10:51:11.554Z,6.99
2017-12-15T10:52:12.967Z,7.02
2017-12-15T10:53:14.380Z,7.08
2017-12-15T10:54:15.795Z,7.17
2017-12-15T10:55:17.220Z,7.19
2017-12-15T10:56:18.635Z,7.22
2017-12-15T10:57:20.047Z,7.32
2017-12-15T10:58:21.484Z,7.32
2017-12-15T10:59:22.935Z,7.32
2017-12-15T11:00:24.353Z,7.22
2017-12-15T11:01:25.774Z,7.17
2017-12-15T11:02:27.186Z,6.90
2017-12-15T11:03:28.604Z,6.84
2017-12-15T11:04:30.012Z,6.80
2017-12-15T11:05:31.420Z,7.01
2017-12-15T11:06:32.828Z,7.02
2017-12-15T11:07:34.248Z,7.04
2017-12-15T11:08:35.663Z,7.19
2017-12-15T11:09:37.067Z,7.26
2017-12-15T11:10:38.485Z,7.24
2017-12-15T11:11:39.898Z,7.19
2017-12-15T11:12:41.435Z,7.15
2017-12-15T11:13:42.845Z,7.08
2017-12-15T11:14:44.258Z,7.02
2017-12-15T11:15:45.676Z,7.08
2017-12-15T11:16:47.105Z,7.04
2017-12-15T11:17:48.520Z,6.95
2017-12-15T11:18:49.938Z,7.05
2017-12-15T11:19:51.358Z,7.34
2017-12-15T11:20:52.773Z,7.47
2017-12-15T11:21:54.186Z,7.41
2017-12-15T11:22:55.605Z,7.35
2017-12-15T11:23:57.016Z,7.40
2017-12-15T11:24:58.443Z,7.53
2017-12-15T11:25:59.866Z,7.44
2017-12-15T11:27:01.301Z,7.41
2017-12-15T11:28:02.706Z,7.34
2017-12-15T11:29:04.147Z,7.42
2017-12-15T11:30:05.542Z,7.40
2017-12-15T11:31:06.966Z,7.31
2017-12-15T11:32:08.382Z,7.34
2017-12-15T11:33:09.812Z,7.27
2017-12-15T11:34:11.233Z,7.23
2017-12-15T11:35:12.662Z,7.31
2017-12-15T11:36:14.092Z,7.40
2017-12-15T11:37:15.524Z,7.38
2017-12-15T11:38:16.935Z,7.47
2017-12-15T11:39:18.346Z,7.52
2017-12-15T11:40:21.180Z,7.62
2017-12-15T11:41:22.658Z,7.52
2017-12-15T11:42:24.078Z,7.56
2017-12-15T11:43:25.494Z,7.42
2017-12-15T11:44:26.912Z,7.49
2017-12-15T11:45:29.573Z,7.41
2017-12-15T11:46:30.986Z,7.53
2017-12-15T11:47:32.419Z,7.62
2017-12-15T11:48:33.837Z,7.63
2017-12-15T11:49:35.298Z,7.62
2017-12-15T11:50:36.717Z,7.59
2017-12-15T11:51:38.140Z,7.72
2017-12-15T11:52:39.581Z,7.75
2017-12-15T11:53:41.002Z,7.59
2017-12-15T11:54:42.418Z,7.50
2017-12-15T11:55:43.826Z,7.41
2017-12-15T11:56:45.260Z,7.34
2017-12-15T11:57:46.669Z,7.32
2017-12-15T11:58:48.084Z,7.37
2017-12-15T11:59:49.506Z,7.41
2017-12-15T12:00:50.918Z,7.40
2017-12-15T12:01:52.339Z,7.58
2017-12-15T12:02:53.762Z,7.66
2017-12-15T12:03:55.192Z,7.99
2017-12-15T12:04:56.623Z,7.97
2017-12-15T12:05:58.042Z,7.89
2017-12-15T12:06:59.471Z,7.96
2017-12-15T12:08:00.895Z,7.99
2017-12-15T12:09:02.310Z,7.92
2017-12-15T12:10:04.635Z,7.78
2017-12-15T12:11:06.060Z,7.81
2017-12-15T12:12:07.480Z,7.77
2017-12-15T12:13:08.900Z,7.62
2017-12-15T12:14:10.320Z,7.60
2017-12-15T12:15:11.750Z,7.60
2017-12-15T12:16:13.183Z,7.69
2017-12-15T12:17:14.619Z,7.77
2017-12-15T12:18:16.025Z,7.59
2017-12-15T12:19:17.446Z,7.77
2017-12-15T12:20:18.876Z,7.85
2017-12-15T12:21:20.294Z,7.78
2017-12-15T12:22:21.774Z,7.87
2017-12-15T12:23:23.209Z,7.99
2017-12-15T12:24:24.606Z,7.90
2017-12-15T12:25:26.019Z,8.02
2017-12-15T12:26:27.435Z,8.02
2017-12-15T12:27:28.844Z,7.89
2017-12-15T12:28:30.256Z,7.72
2017-12-15T12:29:31.668Z,7.71
2017-12-15T12:30:33.107Z,7.85
2017-12-15T12:31:34.516Z,7.93
2017-12-15T12:32:35.938Z,8.04
2017-12-15T12:33:37.355Z,8.15
2017-12-15T12:34:38.770Z,8.02
2017-12-15T12:35:40.201Z,7.79
2017-12-15T12:36:41.627Z,7.59
2017-12-15T12:37:43.053Z,7.58
2017-12-15T12:38:44.473Z,7.55
2017-12-15T12:39:45.886Z,7.49
2017-12-15T12:40:47.306Z,7.37
2017-12-15T12:41:48.720Z,7.41
2017-12-15T12:42:50.124Z,7.56
2017-12-15T12:43:51.545Z,7.40
2017-12-15T12:44:52.968Z,7.38
2017-12-15T12:45:54.382Z,7.34
2017-12-15T12:46:55.792Z,7.27
2017-12-15T12:47:57.217Z,7.23
2017-12-15T12:48:58.637Z,7.24
2017-12-15T12:50:00.055Z,7.40
2017-12-15T12:51:01.460Z,7.45
2017-12-15T12:52:02.887Z,7.42
2017-12-15T12:53:04.295Z,7.66
2017-12-15T12:54:05.707Z,7.75
2017-12-15T12:55:07.121Z,7.79
2017-12-15T12:56:08.541Z,7.79
2017-12-15T12:57:09.979Z,7.85
2017-12-15T12:58:11.396Z,7.77
2017-12-15T12:59:12.814Z,7.72
2017-12-15T13:00:14.234Z,7.71
2017-12-15T13:01:15.651Z,7.85
2017-12-15T13:02:17.053Z,7.74
2017-12-15T13:03:18.579Z,7.62
2017-12-15T13:04:20.004Z,7.97
2017-12-15T13:05:21.427Z,7.75
2017-12-15T13:06:22.835Z,7.93
2017-12-15T13:07:24.260Z,8.03
2017-12-15T13:08:25.693Z,7.96
2017-12-15T13:09:27.141Z,7.81
2017-12-15T13:10:28.618Z,7.82
2017-12-15T13:11:29.984Z,7.78
2017-12-15T13:12:31.411Z,7.84
2017-12-15T13:13:32.826Z,8.00
2017-12-15T13:14:34.898Z,8.35
2017-12-15T13:15:36.321Z,8.30
2017-12-15T13:16:37.736Z,8.39
2017-12-15T13:17:39.160Z,8.51
2017-12-15T13:18:40.569Z,8.36
2017-12-15T13:19:41.983Z,8.18
2017-12-15T13:20:43.413Z,8.15
2017-12-15T13:21:44.861Z,7.93
2017-12-15T13:22:46.278Z,7.74
2017-12-15T13:23:47.697Z,7.92
2017-12-15T13:24:49.126Z,8.20
2017-12-15T13:25:50.547Z,8.42
2017-12-15T13:26:51.965Z,8.26
2017-12-15T13:27:53.373Z,8.11
2017-12-15T13:28:54.829Z,8.25
2017-12-15T13:29:56.259Z,8.12
2017-12-15T13:30:57.659Z,7.84
2017-12-15T13:31:59.074Z,7.82
2017-12-15T13:33:00.504Z,8.02
2017-12-15T13:34:01.918Z,7.82
2017-12-15T13:35:03.356Z,7.89
2017-12-15T13:36:04.786Z,7.75
2017-12-15T13:37:06.206Z,7.71